Time;durP1;ratioP1;P1;durP2;ratioP2;P2;SDS_P1;SDS_P2;PMS_P1;PMS_P2;Temp;Humidity;BMP_temperature;BMP_pressure;BME280_temperature;BME280_humidity;BME280_pressure;Samples;Min_cycle;Max_cycle;Signal;HPM_P1;HPM_P2
2020/12/29 00:00:00;;;;;;;1.40;1.08;;;;;;;3.38;76.02;95279.53;4975062;28;20047;-63
2020/12/29 00:02:27;;;;;;;2.33;1.40;;;;;;;3.37;75.99;95289.19;4975000;28;20130;-63
2020/12/29 00:04:54;;;;;;;1.75;1.38;;;;;;;3.37;76.11;95283.97;4974421;28;20070;-62
2020/12/29 00:07:21;;;;;;;1.67;1.52;;;;;;;3.41;75.72;95294.72;4974953;28;20039;-63
2020/12/29 00:09:48;;;;;;;1.40;1.27;;;;;;;3.36;75.72;95299.88;4975067;28;20054;-63
2020/12/29 00:12:15;;;;;;;15.00;9.00;;;;;;;3.36;76.07;95298.03;4974767;28;20047;-63
2020/12/29 00:14:41;;;;;;;3.60;2.63;;;;;;;3.41;76.25;95292.91;4974421;28;20109;-62
2020/12/29 00:17:08;;;;;;;39.25;21.85;;;;;;;3.44;76.43;95295.06;4974589;28;20047;-62
2020/12/29 00:19:35;;;;;;;20.73;11.93;;;;;;;3.50;75.74;95302.97;4974549;28;20050;-62
2020/12/29 00:22:02;;;;;;;12.07;6.97;;;;;;;3.46;76.07;95293.00;4974792;28;20057;-61
2020/12/29 00:24:29;;;;;;;8.02;5.00;;;;;;;3.47;76.04;95291.19;4974187;28;20051;-63
2020/12/29 00:27:02;;;;;;;2.90;2.30;;;;;;;3.47;76.27;95294.59;4974263;28;20497;-63
2020/12/29 00:29:29;;;;;;;1.65;1.50;;;;;;;3.51;76.28;95294.13;4974320;28;20133;-63
2020/12/29 00:32:00;;;;;;;1.60;1.50;;;;;;;3.60;76.17;95292.72;4974259;28;20078;-63
2020/12/29 00:34:27;;;;;;;1.90;1.52;;;;;;;3.56;76.15;95281.16;4974054;28;20051;-63
2020/12/29 00:36:54;;;;;;;1.27;1.17;;;;;;;3.58;75.78;95285.13;4974078;28;20130;-63
2020/12/29 00:39:21;;;;;;;1.70;1.50;;;;;;;3.59;75.95;95284.09;4974101;28;20051;-62
2020/12/29 00:41:48;;;;;;;1.80;1.70;;;;;;;3.59;75.87;95278.88;4974245;28;20050;-62
2020/12/29 00:44:15;;;;;;;1.95;1.58;;;;;;;3.62;75.92;95285.44;4972410;28;20142;-63
2020/12/29 00:46:42;;;;;;;1.90;1.55;;;;;;;3.59;75.85;95288.50;4973990;28;20488;-62
2020/12/29 00:49:08;;;;;;;2.42;2.15;;;;;;;3.59;76.24;95291.13;4973911;28;20042;-63
2020/12/29 00:51:35;;;;;;;2.92;1.73;;;;;;;3.61;76.20;95291.69;4973928;28;20046;-62
2020/12/29 00:54:04;;;;;;;2.25;2.10;;;;;;;3.60;76.26;95285.69;4972530;28;20054;-63
2020/12/29 00:56:39;;;;;;;2.65;1.90;;;;;;;3.62;76.45;95281.00;4972500;28;20409;-63
2020/12/29 00:59:07;;;;;;;2.17;1.98;;;;;;;3.67;76.05;95281.13;4972404;28;20043;-63
2020/12/29 01:01:35;;;;;;;1.95;1.58;;;;;;;3.68;75.69;95284.53;4973724;28;20039;-63
2020/12/29 01:04:28;;;;;;;2.38;2.08;;;;;;;3.66;76.23;95289.16;4965048;28;20571;-63
2020/12/29 01:07:01;;;;;;;1.60;1.50;;;;;;;3.66;76.00;95286.56;4972405;28;20077;-63
2020/12/29 01:09:28;;;;;;;2.08;1.60;;;;;;;3.63;76.05;95290.44;4973969;28;20121;-63
2020/12/29 01:11:57;;;;;;;2.63;1.92;;;;;;;3.61;76.07;95286.47;4972292;28;20109;-62
2020/12/29 01:14:27;;;;;;;2.83;1.58;;;;;;;3.57;76.01;95286.16;4972050;28;20073;-63
2020/12/29 01:17:08;;;;;;;2.72;1.60;;;;;;;3.42;76.21;95286.66;4972165;28;20078;-62
2020/12/29 01:19:34;;;;;;;1.92;1.70;;;;;;;3.46;76.48;95277.31;4973481;28;20039;-62
2020/12/29 01:22:01;;;;;;;3.40;1.85;;;;;;;3.52;76.26;95287.88;4973495;28;20838;-62
2020/12/29 01:24:28;;;;;;;3.72;1.70;;;;;;;3.56;76.20;95284.56;4973088;28;20046;-63
2020/12/29 01:26:56;;;;;;;2.25;1.77;;;;;;;3.57;76.51;95278.31;4973250;28;20054;-63
2020/12/29 01:29:23;;;;;;;2.15;1.95;;;;;;;3.60;76.28;95282.28;4973342;28;20046;-62
2020/12/29 01:31:51;;;;;;;3.40;1.70;;;;;;;3.56;76.22;95283.78;4973219;28;20046;-62
2020/12/29 01:34:17;;;;;;;1.70;1.58;;;;;;;3.61;76.52;95291.69;4971987;28;20054;-62
2020/12/29 01:36:44;;;;;;;2.00;1.80;;;;;;;3.62;76.29;95288.06;4973367;28;20512;-62
2020/12/29 01:39:11;;;;;;;2.33;1.63;;;;;;;3.60;76.35;95284.91;4972044;28;20047;-62
2020/12/29 01:41:38;;;;;;;3.53;2.00;;;;;;;3.66;76.44;95284.72;4973400;28;20050;-62
2020/12/29 01:44:15;;;;;;;1.70;1.60;;;;;;;3.65;76.07;95287.59;4972244;28;20053;-62
2020/12/29 01:46:43;;;;;;;1.95;1.75;;;;;;;3.54;76.47;95284.00;4973198;28;20126;-62
2020/12/29 01:49:11;;;;;;;2.55;2.00;;;;;;;3.58;76.74;95285.13;4972309;28;20141;-62
2020/12/29 01:51:39;;;;;;;2.88;1.83;;;;;;;3.66;76.64;95284.72;4975936;28;20405;-62
2020/12/29 01:54:06;;;;;;;2.30;1.88;;;;;;;3.68;76.40;95294.97;4977249;28;20489;-62
2020/12/29 01:56:37;;;;;;;1.42;1.33;;;;;;;3.69;76.41;95291.31;4976987;28;20065;-62
2020/12/29 01:59:08;;;;;;;1.60;1.50;;;;;;;3.69;76.60;95293.94;4977376;28;20047;-61
2020/12/29 02:01:39;;;;;;;1.85;1.50;;;;;;;3.72;76.04;95298.69;4977145;28;20416;-62
2020/12/29 02:04:07;;;;;;;1.40;1.30;;;;;;;3.72;76.27;95294.25;4975917;28;20047;-62
2020/12/29 02:06:35;;;;;;;1.50;1.30;;;;;;;3.72;76.23;95296.09;4976794;28;20054;-62
2020/12/29 02:09:04;;;;;;;1.52;1.30;;;;;;;3.70;76.43;95293.69;4977326;28;20050;-62
2020/12/29 02:11:31;;;;;;;1.98;1.77;;;;;;;3.67;76.30;95302.00;4975670;28;20077;-62
2020/12/29 02:13:58;;;;;;;7.07;4.20;;;;;;;3.66;76.42;95297.78;4977260;28;20053;-62
2020/12/29 02:16:24;;;;;;;4.13;2.50;;;;;;;3.66;76.40;95300.41;4977091;28;20046;-62
2020/12/29 02:18:51;;;;;;;15.68;8.18;;;;;;;3.59;76.47;95301.56;4976939;28;20050;-62
2020/12/29 02:21:18;;;;;;;18.55;9.65;;;;;;;3.60;76.55;95301.34;4977012;28;20070;-63
2020/12/29 02:23:46;;;;;;;4.38;3.50;;;;;;;3.65;76.75;95306.66;4977120;28;20049;-62
2020/12/29 02:26:29;;;;;;;2.15;1.95;;;;;;;3.69;76.34;95307.00;4976834;28;20047;-62
2020/12/29 02:28:57;;;;;;;1.60;1.50;;;;;;;3.67;76.59;95307.25;4976771;28;20042;-62
2020/12/29 02:31:24;;;;;;;1.35;1.25;;;;;;;3.70;76.77;95322.44;4977706;28;20505;-62
2020/12/29 02:33:51;;;;;;;1.35;1.13;;;;;;;3.67;76.74;95328.13;4977823;28;20042;-62
2020/12/29 02:36:18;;;;;;;1.20;1.10;;;;;;;3.61;76.74;95323.84;4980454;28;20039;-63
2020/12/29 02:38:45;;;;;;;2.00;1.20;;;;;;;3.64;76.64;95325.97;4979917;28;20064;-63
2020/12/29 02:41:13;;;;;;;1.15;1.05;;;;;;;3.70;76.79;95327.66;4977955;28;20046;-63
2020/12/29 02:43:40;;;;;;;1.15;1.05;;;;;;;3.72;76.27;95324.81;4980668;28;20058;-63
2020/12/29 02:46:07;;;;;;;0.90;0.90;;;;;;;3.71;76.57;95336.28;4981855;28;20051;-63
2020/12/29 02:48:33;;;;;;;0.90;0.90;;;;;;;3.73;76.72;95331.63;4981830;28;20092;-64
2020/12/29 02:51:00;;;;;;;1.17;1.10;;;;;;;3.83;76.69;95346.69;4981476;28;20411;-63
2020/12/29 02:53:27;;;;;;;1.50;1.20;;;;;;;3.86;76.50;95348.81;4981844;28;20046;-63
2020/12/29 02:55:54;;;;;;;0.88;0.82;;;;;;;3.87;76.36;95351.19;4982499;28;20062;-63
2020/12/29 02:58:21;;;;;;;1.48;1.17;;;;;;;3.86;76.30;95352.22;4982280;28;20390;-63
2020/12/29 03:00:47;;;;;;;2.35;1.10;;;;;;;3.81;76.33;95352.16;4982905;28;20039;-63
2020/12/29 03:03:14;;;;;;;1.40;1.30;;;;;;;3.75;76.10;95362.72;4977958;28;20039;-63
2020/12/29 03:05:41;;;;;;;1.10;1.00;;;;;;;3.66;76.16;95355.25;4978376;28;20050;-62
2020/12/29 03:08:09;;;;;;;0.88;0.80;;;;;;;3.68;76.62;95362.88;4978777;28;20047;-63
2020/12/29 03:10:37;;;;;;;0.70;0.70;;;;;;;3.67;76.16;95362.09;4979567;28;20413;-63
2020/12/29 03:13:04;;;;;;;1.40;0.90;;;;;;;3.57;76.50;95361.88;4979960;28;20059;-63
2020/12/29 03:15:31;;;;;;;1.33;0.75;;;;;;;3.52;76.50;95361.00;4978031;28;20054;-63
2020/12/29 03:17:58;;;;;;;0.63;0.60;;;;;;;3.58;76.40;95358.25;4975724;28;20039;-63
2020/12/29 03:20:24;;;;;;;0.90;0.60;;;;;;;3.55;76.55;95361.34;4975801;28;20062;-63
2020/12/29 03:22:51;;;;;;;1.20;0.73;;;;;;;3.56;76.10;95368.16;4975651;28;20042;-63
2020/12/29 03:25:18;;;;;;;0.50;0.50;;;;;;;3.43;76.28;95366.59;4975320;28;20058;-63
2020/12/29 03:27:44;;;;;;;0.50;0.50;;;;;;;3.35;76.40;95382.63;4975423;28;20062;-63
2020/12/29 03:30:12;;;;;;;0.50;0.50;;;;;;;3.32;76.59;95384.91;4975481;28;20125;-63
2020/12/29 03:32:38;;;;;;;0.60;0.60;;;;;;;3.28;76.33;95394.22;4974142;28;20402;-63
2020/12/29 03:35:05;;;;;;;0.80;0.55;;;;;;;3.23;76.51;95405.34;4973760;28;20074;-63
2020/12/29 03:37:32;;;;;;;1.63;0.50;;;;;;;3.09;76.79;95403.97;4975471;28;20065;-63
2020/12/29 03:39:59;;;;;;;0.70;0.70;;;;;;;3.03;76.91;95405.69;4975347;28;20078;-63
2020/12/29 03:42:25;;;;;;;1.42;0.60;;;;;;;2.93;76.95;95421.91;4975357;28;20046;-63
2020/12/29 03:44:52;;;;;;;0.60;0.57;;;;;;;2.84;77.29;95431.09;4974855;28;20489;-63
2020/12/29 03:47:19;;;;;;;0.60;0.60;;;;;;;2.79;77.62;95443.25;4975117;28;20050;-63
2020/12/29 03:49:47;;;;;;;0.70;0.70;;;;;;;2.85;77.79;95450.94;4975265;28;20054;-63
2020/12/29 03:52:13;;;;;;;1.30;0.65;;;;;;;2.88;77.53;95458.31;4975155;28;20043;-61
2020/12/29 03:54:40;;;;;;;1.10;0.65;;;;;;;2.86;77.57;95465.59;4974729;28;20046;-61
2020/12/29 03:57:06;;;;;;;0.50;0.47;;;;;;;2.79;77.49;95466.72;4974803;28;20043;-62
2020/12/29 03:59:34;;;;;;;0.30;0.30;;;;;;;2.67;77.51;95471.91;4974859;28;20081;-62
2020/12/29 04:02:00;;;;;;;0.40;0.40;;;;;;;2.66;77.86;95473.72;4974920;28;20047;-63
2020/12/29 04:04:28;;;;;;;0.30;0.30;;;;;;;2.62;77.78;95482.22;4974607;28;20394;-62
2020/12/29 04:06:54;;;;;;;0.40;0.40;;;;;;;2.61;77.73;95493.66;4974692;28;20058;-62
2020/12/29 04:09:29;;;;;;;0.30;0.25;;;;;;;2.63;77.96;95487.19;4974892;28;20054;-63
2020/12/29 04:11:56;;;;;;;0.30;0.30;;;;;;;2.69;78.08;95495.94;4973436;28;20106;-62
2020/12/29 04:14:22;;;;;;;2.38;0.50;;;;;;;2.79;77.87;95504.03;4973888;28;20042;-63
2020/12/29 04:16:49;;;;;;;0.32;0.32;;;;;;;2.66;77.71;95512.06;4974682;28;20046;-62
2020/12/29 04:19:16;;;;;;;0.75;0.45;;;;;;;2.66;77.99;95522.47;4974632;28;20050;-62
2020/12/29 04:21:44;;;;;;;0.50;0.50;;;;;;;2.72;78.02;95524.19;4974470;28;20409;-63
2020/12/29 04:24:11;;;;;;;0.40;0.40;;;;;;;2.72;77.98;95524.19;4974323;28;20394;-63
2020/12/29 04:26:37;;;;;;;0.40;0.40;;;;;;;2.65;77.64;95523.47;4974301;28;20051;-63
2020/12/29 04:29:04;;;;;;;0.50;0.50;;;;;;;2.64;77.82;95527.13;4974318;28;20051;-63
2020/12/29 04:31:31;;;;;;;0.43;0.43;;;;;;;2.66;77.91;95528.50;4974285;28;20062;-62
2020/12/29 04:33:58;;;;;;;0.57;0.57;;;;;;;2.68;77.81;95528.25;4973010;28;20496;-62
2020/12/29 04:36:25;;;;;;;0.50;0.50;;;;;;;2.60;78.04;95533.78;4973935;28;20047;-61
2020/12/29 04:38:53;;;;;;;0.70;0.70;;;;;;;2.55;78.27;95544.09;4974326;28;20039;-61
2020/12/29 04:41:19;;;;;;;0.70;0.70;;;;;;;2.51;78.19;95554.16;4974059;28;20055;-62
2020/12/29 04:43:47;;;;;;;0.95;0.60;;;;;;;2.53;78.36;95552.16;4974190;28;20050;-62
2020/12/29 04:46:13;;;;;;;0.60;0.60;;;;;;;2.52;78.13;95563.56;4973844;28;20039;-62
2020/12/29 04:48:40;;;;;;;0.60;0.60;;;;;;;2.52;78.30;95560.97;4973934;28;20057;-61
2020/12/29 04:51:08;;;;;;;0.60;0.60;;;;;;;2.51;78.40;95569.03;4973968;28;20058;-61
2020/12/29 04:53:37;;;;;;;0.70;0.70;;;;;;;2.53;78.51;95580.00;4973926;28;20050;-61
2020/12/29 04:56:06;;;;;;;0.70;0.70;;;;;;;2.52;78.48;95581.03;4972139;28;20051;-62
2020/12/29 04:58:35;;;;;;;0.88;0.88;;;;;;;2.53;78.67;95582.63;4973965;28;20049;-61
2020/12/29 05:01:06;;;;;;;1.20;1.00;;;;;;;2.56;78.93;95597.84;4973972;28;20038;-61
2020/12/29 05:03:44;;;;;;;0.77;0.77;;;;;;;2.63;78.80;95601.16;4973829;28;20046;-61
2020/12/29 05:06:12;;;;;;;0.60;0.60;;;;;;;2.61;78.60;95603.19;4973469;28;20130;-62
2020/12/29 05:08:43;;;;;;;0.68;0.68;;;;;;;2.62;78.79;95610.81;4973535;28;20480;-62
2020/12/29 05:11:12;;;;;;;0.80;0.80;;;;;;;2.56;78.84;95616.88;4973759;28;20078;-62
2020/12/29 05:13:38;;;;;;;0.70;0.70;;;;;;;2.58;78.93;95614.88;4973662;28;20047;-61
2020/12/29 05:16:05;;;;;;;0.80;0.80;;;;;;;2.60;78.95;95623.25;4973235;28;20058;-62
2020/12/29 05:18:32;;;;;;;0.80;0.77;;;;;;;2.60;78.77;95622.47;4973652;28;20153;-61
2020/12/29 05:21:00;;;;;;;0.77;0.75;;;;;;;2.65;78.72;95628.63;4973545;28;20436;-61
2020/12/29 05:23:27;;;;;;;1.33;1.02;;;;;;;2.70;78.75;95633.19;4973791;28;20097;-61
2020/12/29 05:25:54;;;;;;;0.90;0.90;;;;;;;2.78;78.30;95639.91;4972368;28;20047;-61
2020/12/29 05:28:24;;;;;;;0.93;0.88;;;;;;;2.83;78.42;95647.84;4973423;28;20038;-61
2020/12/29 05:30:55;;;;;;;0.77;0.77;;;;;;;2.70;78.09;95646.22;4973557;28;20058;-61
2020/12/29 05:33:25;;;;;;;1.45;0.85;;;;;;;2.67;78.24;95665.69;4973548;28;20054;-61
2020/12/29 05:35:53;;;;;;;1.73;1.13;;;;;;;2.68;78.42;95674.31;4973080;28;20038;-61
2020/12/29 05:38:19;;;;;;;1.52;1.10;;;;;;;2.70;78.52;95674.91;4973521;28;20042;-61
2020/12/29 05:40:47;;;;;;;2.50;1.73;;;;;;;2.64;78.46;95676.56;4973289;28;20489;-61
2020/12/29 05:43:15;;;;;;;1.10;1.00;;;;;;;2.65;78.50;95677.34;4973251;28;20051;-61
2020/12/29 05:45:42;;;;;;;1.05;0.95;;;;;;;2.67;78.33;95691.78;4973043;28;20093;-61
2020/12/29 05:48:09;;;;;;;0.93;0.93;;;;;;;2.70;78.48;95703.59;4973254;28;20611;-61
2020/12/29 05:50:37;;;;;;;1.25;1.15;;;;;;;2.71;78.49;95713.00;4973177;28;20047;-61
2020/12/29 05:53:06;;;;;;;1.00;0.90;;;;;;;2.71;78.40;95716.41;4973121;28;20051;-61
2020/12/29 05:55:34;;;;;;;1.25;1.00;;;;;;;2.63;78.44;95726.34;4972745;28;20050;-61
2020/12/29 05:58:03;;;;;;;1.30;1.20;;;;;;;2.63;78.39;95728.94;4973296;28;20058;-61
2020/12/29 06:00:30;;;;;;;1.10;1.10;;;;;;;2.56;78.37;95738.66;4973090;28;20230;-61
2020/12/29 06:02:59;;;;;;;2.75;1.80;;;;;;;2.62;78.81;95745.63;4972002;28;20051;-61
2020/12/29 06:05:27;;;;;;;1.15;1.05;;;;;;;2.58;78.87;95753.06;4972770;28;20043;-62
2020/12/29 06:07:56;;;;;;;1.30;1.17;;;;;;;2.49;78.95;95754.38;4973102;28;20051;-61
2020/12/29 06:10:24;;;;;;;1.30;1.20;;;;;;;2.56;79.07;95764.72;4972943;28;20038;-62
2020/12/29 06:12:53;;;;;;;1.50;1.33;;;;;;;2.59;78.86;95772.13;4972979;28;20054;-61
2020/12/29 06:15:23;;;;;;;1.10;1.10;;;;;;;2.54;78.92;95778.00;4972826;28;20050;-61
2020/12/29 06:18:01;;;;;;;1.70;1.50;;;;;;;2.54;78.96;95785.03;4973323;28;20519;-61
2020/12/29 06:20:35;;;;;;;1.70;1.60;;;;;;;2.63;78.92;95781.09;4973039;28;20038;-62
2020/12/29 06:23:04;;;;;;;1.90;1.73;;;;;;;2.61;78.89;95802.19;4972974;28;20109;-62
2020/12/29 06:25:34;;;;;;;1.40;1.30;;;;;;;2.67;78.78;95798.72;4972384;28;20074;-61
2020/12/29 06:28:02;;;;;;;1.30;1.30;;;;;;;2.64;78.64;95806.97;4972835;28;20051;-62
2020/12/29 06:30:29;;;;;;;1.50;1.40;;;;;;;2.69;78.83;95806.31;4972814;28;20103;-62
2020/12/29 06:32:57;;;;;;;1.30;1.20;;;;;;;2.69;78.56;95809.75;4972887;28;20404;-62
2020/12/29 06:35:25;;;;;;;1.58;1.48;;;;;;;2.73;78.53;95831.78;4972368;28;20053;-62
2020/12/29 06:37:56;;;;;;;1.30;1.30;;;;;;;2.78;78.41;95836.34;4975449;28;20057;-62
2020/12/29 06:40:23;;;;;;;1.45;1.35;;;;;;;2.83;78.51;95833.09;4976304;28;20042;-63
2020/12/29 06:42:50;;;;;;;1.70;1.60;;;;;;;2.83;78.31;95844.31;4976369;28;20047;-62
2020/12/29 06:45:18;;;;;;;1.63;1.52;;;;;;;2.73;78.17;95859.66;4975929;28;20047;-63
2020/12/29 06:47:47;;;;;;;1.55;1.45;;;;;;;2.74;78.25;95856.06;4976187;28;20058;-62
2020/12/29 06:50:29;;;;;;;1.88;1.70;;;;;;;2.79;78.43;95861.41;4975985;28;20054;-62
2020/12/29 06:53:00;;;;;;;1.67;1.58;;;;;;;2.84;78.46;95864.16;4976128;28;20401;-62
2020/12/29 06:55:35;;;;;;;4.90;2.80;;;;;;;2.81;78.59;95884.66;4975710;28;20054;-62
2020/12/29 06:58:02;;;;;;;1.65;1.55;;;;;;;2.79;78.23;95890.09;4975940;28;20043;-62
2020/12/29 07:00:29;;;;;;;1.60;1.50;;;;;;;2.76;78.22;95887.91;4976183;28;20042;-62
2020/12/29 07:02:56;;;;;;;1.73;1.63;;;;;;;2.79;78.35;95897.13;4976125;28;20047;-63
2020/12/29 07:05:24;;;;;;;2.22;1.73;;;;;;;2.82;78.27;95914.97;4975449;28;20057;-61
2020/12/29 07:07:59;;;;;;;2.30;2.10;;;;;;;2.75;78.15;95917.63;4975789;28;20055;-61
2020/12/29 07:10:32;;;;;;;2.58;2.38;;;;;;;2.81;78.38;95915.97;4975668;28;20047;-61
2020/12/29 07:13:05;;;;;;;2.03;1.80;;;;;;;2.84;78.36;95923.38;4975879;28;20440;-62
2020/12/29 07:15:43;;;;;;;1.95;1.83;;;;;;;2.75;78.10;95929.88;4975887;28;20046;-60
2020/12/29 07:18:10;;;;;;;1.55;1.45;;;;;;;2.78;78.26;95943.31;4975650;28;20531;-61
2020/12/29 07:20:37;;;;;;;1.83;1.73;;;;;;;2.82;78.38;95946.28;4975657;28;20575;-62
2020/12/29 07:23:06;;;;;;;2.45;2.25;;;;;;;2.78;78.38;95947.72;4974471;28;20390;-61
2020/12/29 07:25:34;;;;;;;2.63;2.42;;;;;;;2.82;78.69;95959.34;4975313;28;20050;-61
2020/12/29 07:28:04;;;;;;;2.28;2.17;;;;;;;2.81;78.64;95961.13;4975488;28;20051;-61
2020/12/29 07:30:32;;;;;;;2.30;2.10;;;;;;;2.85;78.66;95961.50;4975677;28;20137;-62
2020/12/29 07:33:01;;;;;;;3.00;2.10;;;;;;;2.89;78.67;95962.66;4975491;28;20061;-61
2020/12/29 07:35:30;;;;;;;3.17;2.50;;;;;;;2.86;78.53;95974.34;4975098;28;20042;-61
2020/12/29 07:37:58;;;;;;;2.53;2.35;;;;;;;2.86;78.56;95976.16;4975490;28;20050;-62
2020/12/29 07:40:26;;;;;;;2.20;2.00;;;;;;;2.85;78.50;95987.59;4975301;28;20154;-61
2020/12/29 07:42:53;;;;;;;2.97;2.10;;;;;;;2.82;78.44;95998.47;4975216;28;20054;-61
2020/12/29 07:45:22;;;;;;;2.20;2.00;;;;;;;2.91;78.55;96010.22;4974879;28;20058;-62
2020/12/29 07:47:49;;;;;;;2.80;2.33;;;;;;;2.88;78.40;96014.06;4974697;28;20055;-62
2020/12/29 07:50:16;;;;;;;2.15;1.92;;;;;;;2.91;78.22;96029.28;4974722;28;20047;-62
2020/12/29 07:52:42;;;;;;;2.53;2.33;;;;;;;2.90;78.05;96032.94;4974994;28;20057;-61
2020/12/29 07:55:10;;;;;;;2.88;2.33;;;;;;;2.86;77.88;96039.56;4974535;28;20055;-61
2020/12/29 07:57:39;;;;;;;1.70;1.60;;;;;;;2.85;78.07;96051.00;4974937;28;20497;-62
2020/12/29 08:00:07;;;;;;;2.10;1.90;;;;;;;2.84;77.86;96059.84;4974865;28;20038;-62
2020/12/29 08:02:38;;;;;;;2.08;1.98;;;;;;;2.86;78.09;96075.31;4974847;28;20061;-62
2020/12/29 08:05:06;;;;;;;1.90;1.80;;;;;;;2.84;78.28;96070.28;4974538;28;20142;-62
2020/12/29 08:07:32;;;;;;;2.10;1.90;;;;;;;2.91;78.18;96078.09;4974837;28;20047;-62
2020/12/29 08:10:08;;;;;;;2.35;2.15;;;;;;;2.96;78.25;96088.69;4974954;28;20098;-62
2020/12/29 08:12:35;;;;;;;3.15;2.00;;;;;;;2.98;78.04;96087.47;4975034;28;20051;-62
2020/12/29 08:15:03;;;;;;;2.70;1.85;;;;;;;3.01;78.10;96101.88;4974461;28;20051;-62
2020/12/29 08:17:30;;;;;;;1.92;1.83;;;;;;;2.97;77.95;96104.13;4974654;28;20061;-61
2020/12/29 08:19:58;;;;;;;2.03;1.80;;;;;;;2.89;78.01;96119.22;4973412;28;20043;-62
2020/12/29 08:22:27;;;;;;;2.20;2.00;;;;;;;2.92;78.04;96119.59;4974702;28;20047;-62
2020/12/29 08:24:55;;;;;;;2.13;1.92;;;;;;;3.02;78.25;96134.00;4974465;28;20066;-62
2020/12/29 08:27:24;;;;;;;2.90;2.60;;;;;;;2.93;78.06;96147.28;4974583;28;20050;-62
2020/12/29 08:29:51;;;;;;;6.97;3.45;;;;;;;2.98;78.08;96141.47;4973133;28;20058;-62
2020/12/29 08:32:22;;;;;;;4.47;3.28;;;;;;;3.06;78.14;96150.84;4974465;28;20429;-62
2020/12/29 08:34:50;;;;;;;1.95;1.83;;;;;;;3.06;77.80;96156.06;4974486;28;20089;-62
2020/12/29 08:37:24;;;;;;;2.30;1.40;;;;;;;2.98;77.79;96163.16;4974213;28;20054;-62
2020/12/29 08:40:01;;;;;;;2.28;1.60;;;;;;;2.96;77.77;96169.56;4974166;28;20051;-62
2020/12/29 08:42:32;;;;;;;1.60;1.50;;;;;;;3.00;77.75;96177.78;4974118;28;20047;-62
2020/12/29 08:44:59;;;;;;;1.92;1.73;;;;;;;3.02;77.71;96179.19;4973650;28;20043;-62
2020/12/29 08:47:31;;;;;;;2.00;1.70;;;;;;;3.09;77.56;96190.38;4973985;28;20054;-62
2020/12/29 08:49:58;;;;;;;1.63;1.52;;;;;;;3.04;77.29;96208.47;4973815;28;20039;-62
2020/12/29 08:52:31;;;;;;;2.33;1.92;;;;;;;3.05;77.66;96206.66;4973848;28;20053;-63
2020/12/29 08:54:58;;;;;;;2.80;2.10;;;;;;;3.07;77.45;96215.91;4973601;28;20053;-63
2020/12/29 08:57:27;;;;;;;2.60;2.40;;;;;;;3.15;77.47;96226.09;4972417;28;20071;-62
2020/12/29 08:59:53;;;;;;;2.45;2.25;;;;;;;3.15;77.52;96230.53;4973846;28;20050;-63
2020/12/29 09:02:28;;;;;;;3.13;2.60;;;;;;;3.19;77.62;96234.31;4973725;28;20051;-62
2020/12/29 09:04:59;;;;;;;2.90;2.58;;;;;;;3.18;77.25;96241.38;4973401;28;20051;-62
2020/12/29 09:07:28;;;;;;;2.72;2.42;;;;;;;3.15;77.44;96247.00;4973589;28;20042;-62
2020/12/29 09:10:07;;;;;;;2.90;2.70;;;;;;;3.15;77.14;96252.22;4973476;28;20039;-62
2020/12/29 09:12:35;;;;;;;3.22;2.90;;;;;;;3.14;77.52;96258.44;4973481;28;20046;-62
2020/12/29 09:15:04;;;;;;;4.57;3.25;;;;;;;3.21;77.68;96267.03;4973362;28;20370;-63
2020/12/29 09:17:33;;;;;;;3.85;3.25;;;;;;;3.20;77.40;96269.88;4973438;28;20050;-62
2020/12/29 09:20:11;;;;;;;4.22;3.83;;;;;;;3.10;77.46;96280.75;4973401;28;20050;-62
2020/12/29 09:22:53;;;;;;;4.30;3.90;;;;;;;3.15;77.81;96290.56;4973306;28;20051;-63
2020/12/29 09:25:25;;;;;;;4.53;4.13;;;;;;;3.04;77.74;96291.22;4973225;28;20078;-62
2020/12/29 09:28:07;;;;;;;4.45;4.05;;;;;;;3.09;77.69;96305.22;4973342;28;20065;-63
2020/12/29 09:30:37;;;;;;;4.65;3.90;;;;;;;3.14;77.82;96304.63;4973304;28;20047;-63
2020/12/29 09:33:04;;;;;;;5.57;5.03;;;;;;;3.20;77.62;96307.22;4973497;28;20416;-63
2020/12/29 09:35:32;;;;;;;5.60;4.55;;;;;;;3.23;77.44;96322.47;4972899;28;20047;-63
2020/12/29 09:38:00;;;;;;;8.45;5.03;;;;;;;3.28;77.57;96321.06;4973219;28;20043;-62
2020/12/29 09:40:42;;;;;;;5.43;4.85;;;;;;;3.36;77.47;96328.66;4973478;28;20094;-63
2020/12/29 09:43:09;;;;;;;5.53;5.00;;;;;;;3.41;77.58;96328.81;4973172;28;20053;-62
2020/12/29 09:45:36;;;;;;;4.55;3.90;;;;;;;3.34;77.44;96330.66;4971589;28;20050;-63
2020/12/29 09:48:03;;;;;;;5.00;4.35;;;;;;;3.33;77.50;96347.34;4973226;28;20493;-63
2020/12/29 09:50:30;;;;;;;7.75;4.50;;;;;;;3.37;77.58;96340.69;4972996;28;20043;-63
2020/12/29 09:52:58;;;;;;;6.88;4.45;;;;;;;3.36;77.58;96358.16;4973028;28;20047;-60
2020/12/29 09:55:26;;;;;;;4.70;3.45;;;;;;;3.34;77.48;96359.38;4972709;28;20066;-62
2020/12/29 09:57:53;;;;;;;4.60;3.63;;;;;;;3.35;77.30;96374.84;4973041;28;20054;-61
2020/12/29 10:00:20;;;;;;;4.25;3.40;;;;;;;3.41;77.18;96374.00;4973041;28;20053;-62
2020/12/29 10:02:46;;;;;;;4.03;2.80;;;;;;;3.42;76.90;96374.81;4973091;28;20046;-62
2020/12/29 10:05:13;;;;;;;4.28;2.78;;;;;;;3.52;76.43;96375.19;4972736;28;20412;-61
2020/12/29 10:07:40;;;;;;;3.42;2.55;;;;;;;3.64;76.13;96380.56;4972982;28;20404;-61
2020/12/29 10:10:07;;;;;;;4.10;2.53;;;;;;;3.69;76.03;96384.16;4972856;28;20047;-61
2020/12/29 10:12:34;;;;;;;5.30;2.78;;;;;;;3.66;75.85;96387.19;4973998;28;20069;-62
2020/12/29 10:15:00;;;;;;;4.07;2.35;;;;;;;3.68;75.82;96395.63;4974958;28;20054;-62
2020/12/29 10:17:27;;;;;;;3.17;2.53;;;;;;;3.86;75.78;96404.59;4976725;28;20074;-62
2020/12/29 10:19:56;;;;;;;2.40;2.20;;;;;;;3.90;75.29;96405.78;4976803;28;20047;-63
2020/12/29 10:22:23;;;;;;;3.65;2.35;;;;;;;3.89;74.96;96406.78;4976872;28;20038;-62
2020/12/29 10:24:49;;;;;;;3.92;2.40;;;;;;;3.94;75.22;96417.41;4976374;28;20501;-62
2020/12/29 10:27:17;;;;;;;3.38;2.47;;;;;;;3.88;74.75;96416.44;4976577;28;20047;-62
2020/12/29 10:29:43;;;;;;;3.88;2.40;;;;;;;3.90;74.69;96418.84;4976602;28;20061;-62
2020/12/29 10:32:10;;;;;;;2.50;1.98;;;;;;;3.84;74.28;96417.88;4976618;28;20058;-62
2020/12/29 10:34:37;;;;;;;3.30;2.13;;;;;;;3.75;74.44;96424.31;4976147;28;20049;-62
2020/12/29 10:37:03;;;;;;;5.63;2.65;;;;;;;3.83;74.63;96415.44;4976465;28;20057;-62
2020/12/29 10:39:31;;;;;;;11.93;5.30;;;;;;;3.92;74.78;96425.47;4976440;28;20070;-62
2020/12/29 10:41:57;;;;;;;4.82;2.85;;;;;;;3.97;74.39;96430.06;4976376;28;20047;-62
2020/12/29 10:44:25;;;;;;;10.05;4.00;;;;;;;3.97;74.72;96427.47;4976107;28;20528;-63
2020/12/29 10:46:51;;;;;;;3.30;2.40;;;;;;;4.03;74.64;96431.84;4976327;28;20156;-62
2020/12/29 10:49:19;;;;;;;3.20;2.47;;;;;;;4.05;74.27;96432.44;4974838;28;20053;-62
2020/12/29 10:51:46;;;;;;;6.13;2.50;;;;;;;3.95;74.18;96447.75;4976271;28;20062;-62
2020/12/29 10:54:12;;;;;;;5.15;2.88;;;;;;;3.97;74.61;96454.41;4975858;28;20069;-63
2020/12/29 10:56:39;;;;;;;5.38;3.25;;;;;;;3.95;74.59;96451.19;4976118;28;20105;-62
2020/12/29 10:59:06;;;;;;;5.00;2.90;;;;;;;3.90;74.84;96448.41;4975953;28;20047;-62
2020/12/29 11:01:33;;;;;;;5.32;2.80;;;;;;;3.91;74.88;96459.66;4976026;28;20055;-62
2020/12/29 11:04:00;;;;;;;6.00;2.80;;;;;;;3.99;75.04;96459.41;4976139;28;20500;-62
2020/12/29 11:06:27;;;;;;;8.38;3.83;;;;;;;4.06;74.65;96454.16;4974300;28;20054;-62
2020/12/29 11:08:54;;;;;;;5.53;3.40;;;;;;;4.16;74.62;96465.78;4975830;28;20081;-62
2020/12/29 11:11:20;;;;;;;4.03;2.63;;;;;;;4.19;74.16;96464.53;4976043;28;20077;-62
2020/12/29 11:13:48;;;;;;;6.03;2.65;;;;;;;4.15;74.04;96473.81;4976034;28;20042;-63
2020/12/29 11:16:16;;;;;;;7.93;3.30;;;;;;;4.11;74.31;96470.03;4975670;28;20421;-67
2020/12/29 11:18:44;;;;;;;5.15;3.20;;;;;;;4.12;74.45;96480.28;4975951;28;20046;-62
2020/12/29 11:21:12;;;;;;;5.93;2.72;;;;;;;4.13;74.25;96479.28;4974453;28;20133;-63
2020/12/29 11:23:38;;;;;;;6.00;2.70;;;;;;;4.17;74.09;96504.00;4974425;28;20039;-63
2020/12/29 11:26:05;;;;;;;6.47;3.10;;;;;;;4.14;73.76;96499.16;4975328;28;20054;-62
2020/12/29 11:28:32;;;;;;;6.70;3.17;;;;;;;4.10;73.60;96505.03;4974234;28;20050;-62
2020/12/29 11:30:58;;;;;;;6.15;3.78;;;;;;;4.16;73.75;96501.56;4975509;28;20042;-62
2020/12/29 11:33:25;;;;;;;8.98;3.10;;;;;;;4.15;73.15;96502.59;4975550;28;20054;-62
2020/12/29 11:35:52;;;;;;;8.60;3.20;;;;;;;4.21;73.33;96501.78;4974978;28;20046;-62
2020/12/29 11:38:21;;;;;;;5.70;2.78;;;;;;;4.31;72.91;96506.53;4975473;28;20050;-63
2020/12/29 11:40:49;;;;;;;9.88;2.70;;;;;;;4.26;73.00;96501.13;4975404;28;20054;-63
2020/12/29 11:43:16;;;;;;;9.77;3.72;;;;;;;4.20;72.77;96505.38;4974355;28;20054;-62
2020/12/29 11:45:43;;;;;;;4.05;2.22;;;;;;;4.18;72.70;96507.41;4975046;28;20046;-62